Time;durP1;ratioP1;P1;durP2;ratioP2;P2;SDS_P1;SDS_P2;PMS_P1;PMS_P2;Temp;Humidity;BMP_temperature;BMP_pressure;BME280_temperature;BME280_humidity;BME280_pressure;Samples;Min_cycle;Max_cycle;Signal;HPM_P1;HPM_P2
2023/09/08 00:00:48;;;;;;;7.18;3.40;;;;;;;19.73;78.30;101867.63;2105252;28;21239;-71
2023/09/08 00:01:49;;;;;;;7.10;2.70;;;;;;;19.73;78.19;101862.97;2105630;27;20040;-71
2023/09/08 00:02:52;;;;;;;7.00;2.53;;;;;;;19.72;78.30;101863.28;2113775;27;20059;-71
2023/09/08 00:03:56;;;;;;;6.53;2.65;;;;;;;19.72;78.31;101868.75;2105586;28;20935;-71
2023/09/08 00:04:57;;;;;;;6.68;2.60;;;;;;;19.71;78.30;101861.69;2088994;28;20025;-71
2023/09/08 00:06:01;;;;;;;8.82;3.08;;;;;;;19.71;78.21;101867.16;2105609;27;20025;-71
2023/09/08 00:07:04;;;;;;;5.35;2.58;;;;;;;19.70;78.24;101865.50;2113918;27;20151;-71
2023/09/08 00:08:05;;;;;;;8.80;2.60;;;;;;;19.70;78.11;101862.78;2113950;27;20046;-72
2023/09/08 00:09:07;;;;;;;6.43;2.70;;;;;;;19.68;78.16;101863.09;2122082;27;20111;-71
2023/09/08 00:10:11;;;;;;;6.90;2.78;;;;;;;19.68;78.20;101860.38;2130862;27;20908;-71
2023/09/08 00:11:15;;;;;;;3.83;2.17;;;;;;;19.66;78.14;101855.22;2122708;27;20036;-71
2023/09/08 00:12:17;;;;;;;8.23;2.70;;;;;;;19.66;78.16;101859.88;2122310;27;20100;-71
2023/09/08 00:13:22;;;;;;;3.97;2.33;;;;;;;19.66;78.24;101854.41;2104907;28;20037;-72
2023/09/08 00:14:26;;;;;;;6.65;2.60;;;;;;;19.64;78.26;101859.34;2098578;28;20033;-71
2023/09/08 00:15:28;;;;;;;5.40;2.60;;;;;;;19.64;78.19;101857.47;2105815;27;20024;-71
2023/09/08 00:16:30;;;;;;;6.03;2.78;;;;;;;19.64;78.36;101859.34;2113956;28;20036;-71
2023/09/08 00:17:32;;;;;;;5.72;2.53;;;;;;;19.62;78.24;101848.75;2104905;28;20040;-71
2023/09/08 00:18:34;;;;;;;6.57;2.35;;;;;;;19.61;78.29;101858.03;2105707;27;21288;-71
2023/09/08 00:19:36;;;;;;;6.65;2.35;;;;;;;19.61;78.39;101858.03;2105532;28;20032;-71
2023/09/08 00:20:38;;;;;;;6.15;1.90;;;;;;;19.61;78.24;101849.06;2105747;27;21217;-71
2023/09/08 00:21:43;;;;;;;6.55;2.70;;;;;;;19.59;78.38;101849.34;2113613;27;20182;-71
2023/09/08 00:22:48;;;;;;;5.82;2.08;;;;;;;19.60;78.36;101845.50;2122500;27;20848;-71
2023/09/08 00:23:50;;;;;;;3.78;2.00;;;;;;;19.59;78.38;101840.38;2121282;27;21275;-71
2023/09/08 00:24:53;;;;;;;6.00;1.85;;;;;;;19.59;78.44;101840.38;2097127;28;20170;-71
2023/09/08 00:25:55;;;;;;;4.72;1.80;;;;;;;19.59;78.35;101837.63;2097744;27;20026;-71
2023/09/08 00:26:57;;;;;;;3.45;1.83;;;;;;;19.58;78.46;101830.59;2114135;27;20199;-71
2023/09/08 00:27:58;;;;;;;4.22;1.67;;;;;;;19.58;78.51;101838.75;2113404;28;20059;-71
2023/09/08 00:29:00;;;;;;;6.57;2.38;;;;;;;19.56;78.39;101838.25;2088974;28;20069;-71
2023/09/08 00:30:02;;;;;;;3.83;1.92;;;;;;;19.56;78.38;101835.53;2088552;28;20935;-71
2023/09/08 00:31:05;;;;;;;5.13;1.90;;;;;;;19.56;78.47;101833.59;2097928;27;20140;-71
2023/09/08 00:32:07;;;;;;;4.80;2.10;;;;;;;19.55;78.35;101837.44;2105759;27;21365;-71
2023/09/08 00:33:09;;;;;;;3.67;1.90;;;;;;;19.54;78.35;101840.47;2114923;27;20040;-71
2023/09/08 00:34:10;;;;;;;3.55;1.92;;;;;;;19.55;78.50;101837.44;2105411;28;20158;-71
2023/09/08 00:35:13;;;;;;;5.80;1.85;;;;;;;19.53;78.43;101834.22;2105689;27;20028;-71
2023/09/08 00:36:18;;;;;;;3.33;1.90;;;;;;;19.53;78.28;101828.75;2105865;27;20023;-71
2023/09/08 00:37:20;;;;;;;3.95;1.90;;;;;;;19.53;78.41;101836.13;2115354;27;20028;-71
2023/09/08 00:38:22;;;;;;;8.20;2.53;;;;;;;19.52;78.25;101837.25;2114265;27;20038;-71
2023/09/08 00:39:23;;;;;;;4.80;1.80;;;;;;;19.51;78.31;101836.44;2106468;27;20868;-71
2023/09/08 00:40:26;;;;;;;4.50;2.15;;;;;;;19.52;78.41;101838.06;2114196;27;20099;-71
2023/09/08 00:41:30;;;;;;;3.83;2.03;;;;;;;19.50;78.40;101834.84;2115245;27;20031;-71
2023/09/08 00:42:33;;;;;;;5.35;2.28;;;;;;;19.50;78.16;101836.75;2115383;27;20900;-71
2023/09/08 00:43:36;;;;;;;6.30;2.13;;;;;;;19.49;78.21;101835.97;2122745;27;20023;-71
2023/09/08 00:44:39;;;;;;;4.53;2.22;;;;;;;19.49;78.10;101838.69;2121854;27;20831;-71
2023/09/08 00:45:43;;;;;;;5.15;2.05;;;;;;;19.48;78.11;101839.78;2106305;27;20039;-71
2023/09/08 00:46:47;;;;;;;4.95;2.00;;;;;;;19.48;77.98;101842.50;2114576;27;20031;-71
2023/09/08 00:47:51;;;;;;;3.35;1.85;;;;;;;19.49;77.89;101838.69;2115044;27;20020;-71
2023/09/08 00:48:53;;;;;;;3.15;1.90;;;;;;;19.48;77.74;101838.97;2123303;27;20028;-71
2023/09/08 00:49:55;;;;;;;5.53;2.10;;;;;;;19.47;77.77;101834.63;2114492;27;20071;-71
2023/09/08 00:50:58;;;;;;;4.43;2.20;;;;;;;19.45;78.03;101832.22;2115459;27;20034;-71
2023/09/08 00:52:00;;;;;;;6.65;1.90;;;;;;;19.46;77.89;101839.28;2112865;27;20940;-71
2023/09/08 00:53:05;;;;;;;5.15;1.95;;;;;;;19.45;77.74;101835.75;2107507;27;20819;-72
2023/09/08 00:54:08;;;;;;;5.88;1.90;;;;;;;19.45;77.85;101837.66;2106560;28;20151;-71
2023/09/08 00:55:13;;;;;;;3.50;2.35;;;;;;;19.44;77.82;101844.25;2098578;28;20032;-71
2023/09/08 00:56:14;;;;;;;4.75;2.53;;;;;;;19.43;77.74;101837.97;2106951;27;20183;-71
2023/09/08 00:57:16;;;;;;;3.13;1.90;;;;;;;19.44;77.83;101846.97;2097891;28;20029;-72
2023/09/08 00:58:17;;;;;;;3.85;1.77;;;;;;;19.44;77.80;101838.78;2090124;28;20040;-72
2023/09/08 00:59:19;;;;;;;7.82;2.35;;;;;;;19.44;77.67;101833.34;2098132;28;20922;-71
2023/09/08 01:00:25;;;;;;;6.03;2.35;;;;;;;19.42;77.71;101833.66;2115886;27;20139;-71
2023/09/08 01:01:27;;;;;;;3.33;1.95;;;;;;;19.42;77.76;101835.56;2106462;28;20067;-71
2023/09/08 01:02:29;;;;;;;2.83;1.80;;;;;;;19.42;77.57;101833.66;2098327;28;20036;-71
2023/09/08 01:03:31;;;;;;;9.00;1.95;;;;;;;19.42;77.54;101832.84;2106697;27;20119;-71
2023/09/08 01:04:33;;;;;;;4.90;2.33;;;;;;;19.42;77.51;101835.56;2114985;27;20040;-71
2023/09/08 01:05:35;;;;;;;3.85;1.90;;;;;;;19.41;77.38;101836.66;2106498;28;20032;-71
2023/09/08 01:06:39;;;;;;;3.88;2.00;;;;;;;19.39;77.36;101838.91;2106596;28;20155;-71
2023/09/08 01:07:42;;;;;;;2.60;1.65;;;;;;;19.39;77.37;101828.00;2107078;27;20139;-71
2023/09/08 01:08:44;;;;;;;4.03;1.88;;;;;;;19.37;77.31;101831.03;2128390;27;20068;-71
2023/09/08 01:09:47;;;;;;;4.60;2.05;;;;;;;19.38;77.09;101826.38;2123234;27;20031;-71
2023/09/08 01:10:48;;;;;;;3.17;2.00;;;;;;;19.37;77.27;101830.22;2107217;27;20078;-71
2023/09/08 01:11:52;;;;;;;4.95;1.83;;;;;;;19.36;77.16;101823.16;2098623;28;20083;-71
2023/09/08 01:12:57;;;;;;;2.97;1.90;;;;;;;19.36;77.09;101823.16;2108602;27;20127;-70
2023/09/08 01:13:59;;;;;;;4.05;1.98;;;;;;;19.35;77.13;101824.25;2114615;28;21008;-71
2023/09/08 01:15:24;;;;;;;4.15;2.03;;;;;;;19.34;76.85;101830.84;2115567;27;20821;-71
2023/09/08 01:16:26;;;;;;;4.53;2.10;;;;;;;19.34;77.12;101823.47;2122906;27;20765;-71
2023/09/08 01:17:27;;;;;;;3.70;2.00;;;;;;;19.33;76.85;101826.50;2106473;27;20060;-71
2023/09/08 01:18:29;;;;;;;3.30;2.00;;;;;;;19.33;76.84;101821.06;2115083;27;20794;-71
2023/09/08 01:19:31;;;;;;;6.05;1.95;;;;;;;19.32;76.97;101817.50;2123601;27;20139;-71
2023/09/08 01:21:07;;;;;;;2.40;1.60;;;;;;;19.33;76.88;101823.78;2122629;27;20996;-71
2023/09/08 01:22:16;;;;;;;4.25;1.80;;;;;;;19.31;76.78;101821.34;2092382;27;20892;-70
2023/09/08 01:24:16;;;;;;;4.63;2.00;;;;;;;19.30;76.84;101808.84;2132351;27;20027;-71
2023/09/08 01:25:25;;;;;;;4.25;2.00;;;;;;;19.31;76.58;101806.91;2125013;27;20051;-71
2023/09/08 01:26:40;;;;;;;3.20;1.88;;;;;;;19.32;76.42;101819.41;2124766;27;20089;-71
2023/09/08 01:27:48;;;;;;;3.92;1.80;;;;;;;19.31;76.42;101815.88;2118967;27;21328;-71
2023/09/08 01:28:50;;;;;;;4.43;1.60;;;;;;;19.30;76.37;101821.66;2125494;27;20032;-71
2023/09/08 01:29:54;;;;;;;3.45;1.92;;;;;;;19.29;76.21;101812.66;2123478;27;20043;-71
2023/09/08 01:30:56;;;;;;;2.92;1.88;;;;;;;19.29;76.28;101812.66;2123971;27;20039;-71
2023/09/08 01:32:00;;;;;;;5.30;2.17;;;;;;;19.28;76.30;101815.69;2140542;27;20077;-71
2023/09/08 01:33:04;;;;;;;6.47;2.00;;;;;;;19.26;76.30;101810.53;2131552;27;20142;-71
2023/09/08 01:34:06;;;;;;;6.93;2.13;;;;;;;19.26;76.32;101801.56;2124293;27;20858;-71
2023/09/08 01:35:11;;;;;;;3.33;2.10;;;;;;;19.27;76.11;101808.66;2123540;27;20807;-71
2023/09/08 01:36:14;;;;;;;3.20;1.90;;;;;;;19.25;76.20;101810.84;2115143;27;20874;-71
2023/09/08 01:37:15;;;;;;;4.65;2.13;;;;;;;19.24;76.08;101803.81;2107031;27;20037;-71
2023/09/08 01:38:18;;;;;;;3.30;1.88;;;;;;;19.21;75.95;101800.56;2115173;27;20016;-71
2023/09/08 01:39:22;;;;;;;3.33;1.92;;;;;;;19.21;76.03;101800.56;2115251;27;20766;-71
2023/09/08 01:40:24;;;;;;;5.40;2.28;;;;;;;19.21;76.05;101797.84;2106583;27;20032;-71
2023/09/08 01:41:31;;;;;;;4.15;2.05;;;;;;;19.20;75.96;101795.44;2106668;27;20024;-71
2023/09/08 01:42:33;;;;;;;4.03;2.30;;;;;;;19.19;76.05;101800.06;2132997;27;20080;-71
2023/09/08 01:43:35;;;;;;;4.80;2.35;;;;;;;19.18;76.02;101801.19;2132013;27;20063;-71
2023/09/08 01:44:36;;;;;;;3.65;2.05;;;;;;;19.18;76.16;101803.09;2114775;27;20868;-71
2023/09/08 01:45:39;;;;;;;2.80;1.85;;;;;;;19.18;76.10;101803.09;2106833;27;20025;-71
2023/09/08 01:46:41;;;;;;;2.60;1.85;;;;;;;19.16;76.00;101795.22;2106146;27;20882;-71
2023/09/08 01:47:42;;;;;;;4.80;2.03;;;;;;;19.14;75.99;101794.72;2114910;27;20032;-71
2023/09/08 01:48:47;;;;;;;3.78;2.30;;;;;;;19.13;76.12;101793.09;2132133;27;20850;-71
2023/09/08 01:49:52;;;;;;;3.90;1.98;;;;;;;19.14;76.05;101791.22;2123704;27;20028;-71
2023/09/08 01:50:54;;;;;;;3.60;1.70;;;;;;;19.13;76.13;101795.81;2116033;27;20127;-71
2023/09/08 01:51:56;;;;;;;3.83;2.10;;;;;;;19.12;75.98;101791.50;2102804;28;20074;-71
2023/09/08 01:53:00;;;;;;;2.53;1.80;;;;;;;19.12;75.73;101793.41;2107134;27;20099;-71
2023/09/08 01:54:06;;;;;;;4.60;2.00;;;;;;;19.11;75.90;101795.34;2122923;27;20040;-71
2023/09/08 01:55:12;;;;;;;3.08;2.00;;;;;;;19.10;76.03;101793.72;2123224;27;20026;-71
2023/09/08 01:56:13;;;;;;;5.93;2.25;;;;;;;19.09;76.16;101792.09;2116145;27;20886;-71
2023/09/08 01:57:15;;;;;;;4.70;2.13;;;;;;;19.08;76.05;101789.69;2099282;28;20040;-71
2023/09/08 01:58:20;;;;;;;4.25;2.70;;;;;;;19.06;76.17;101798.16;2100902;27;20033;-71
2023/09/08 01:59:22;;;;;;;3.53;2.30;;;;;;;19.07;75.90;101799.78;2108223;28;20037;-71
2023/09/08 02:00:26;;;;;;;3.13;2.10;;;;;;;19.07;75.99;101797.03;2100171;28;20037;-71
2023/09/08 02:01:28;;;;;;;3.00;2.40;;;;;;;19.06;76.08;101786.47;2108460;27;20029;-71
2023/09/08 02:02:34;;;;;;;2.67;2.00;;;;;;;19.04;76.01;101786.78;2108032;28;20133;-71
2023/09/08 02:03:38;;;;;;;4.15;2.53;;;;;;;19.04;76.15;101788.69;2099963;28;20025;-70
2023/09/08 02:04:39;;;;;;;3.95;2.20;;;;;;;19.02;76.01;101783.53;2100720;27;20037;-71
2023/09/08 02:05:41;;;;;;;7.80;2.10;;;;;;;19.01;75.86;101795.56;2099136;28;20025;-72
2023/09/08 02:06:43;;;;;;;16.30;3.15;;;;;;;19.02;75.88;101793.66;2090820;28;20087;-71
2023/09/08 02:07:45;;;;;;;3.80;2.13;;;;;;;19.01;75.88;101792.84;2091023;28;20056;-72
2023/09/08 02:08:48;;;;;;;5.82;2.45;;;;;;;19.00;76.02;101788.47;2087630;28;20033;-71
2023/09/08 02:09:52;;;;;;;3.25;2.30;;;;;;;18.99;75.88;101781.44;2091966;28;20737;-71
2023/09/08 02:10:55;;;;;;;4.20;2.30;;;;;;;18.98;75.90;101783.34;2116345;27;20138;-71
2023/09/08 02:11:58;;;;;;;3.17;2.05;;;;;;;18.97;75.85;101783.66;2124687;27;20142;-71
2023/09/08 02:12:59;;;;;;;4.63;2.28;;;;;;;18.97;75.84;101783.66;2106816;28;20156;-70
2023/09/08 02:14:01;;;;;;;4.78;2.63;;;;;;;18.96;75.90;101785.56;2098925;28;20539;-71
2023/09/08 02:15:04;;;;;;;3.75;2.58;;;;;;;18.94;75.85;101784.25;2107617;28;20088;-71
2023/09/08 02:16:07;;;;;;;4.20;2.40;;;;;;;18.92;75.78;101783.78;2108348;27;20147;-71
2023/09/08 02:17:11;;;;;;;4.07;2.40;;;;;;;18.94;75.76;101784.25;2107612;28;20075;-71
2023/09/08 02:18:13;;;;;;;5.70;2.38;;;;;;;18.92;75.86;101794.66;2099539;28;20981;-71
2023/09/08 02:19:15;;;;;;;4.80;2.22;;;;;;;18.92;75.91;101783.78;2099508;28;20021;-71
2023/09/08 02:20:17;;;;;;;4.00;2.33;;;;;;;18.92;75.92;101786.50;2099407;28;20207;-71
2023/09/08 02:21:21;;;;;;;7.43;2.75;;;;;;;18.91;75.92;101779.41;2116183;27;20758;-71
2023/09/08 02:22:26;;;;;;;5.75;2.40;;;;;;;18.90;75.91;101783.25;2115822;28;20896;-71
2023/09/08 02:23:27;;;;;;;3.83;2.45;;;;;;;18.88;75.88;101780.81;2106947;27;20945;-71
2023/09/08 02:24:30;;;;;;;2.97;2.10;;;;;;;18.88;75.88;101783.53;2107763;27;20056;-71
2023/09/08 02:25:32;;;;;;;3.70;2.80;;;;;;;18.88;75.88;101782.75;2124543;27;20038;-71
2023/09/08 02:26:33;;;;;;;3.45;2.28;;;;;;;18.86;75.74;101782.25;2133163;27;20020;-71
2023/09/08 02:27:36;;;;;;;3.50;2.20;;;;;;;18.87;75.77;101778.41;2124828;27;20028;-71
2023/09/08 02:28:39;;;;;;;6.13;2.00;;;;;;;18.87;75.97;101781.16;2133520;27;20085;-70
2023/09/08 02:29:41;;;;;;;3.58;2.45;;;;;;;18.85;75.78;101775.19;2132879;27;20947;-71
2023/09/08 02:30:43;;;;;;;5.05;2.50;;;;;;;18.85;75.73;101778.75;2116296;27;20194;-71
2023/09/08 02:31:45;;;;;;;4.25;2.30;;;;;;;18.85;75.88;101776.00;2124114;27;20070;-71
2023/09/08 02:32:47;;;;;;;3.15;2.45;;;;;;;18.85;75.63;101775.19;2115960;27;20020;-71
2023/09/08 02:33:49;;;;;;;5.18;2.30;;;;;;;18.84;75.82;101776.31;2124973;27;20032;-71
2023/09/08 02:34:52;;;;;;;5.15;2.30;;;;;;;18.84;75.74;101779.03;2124358;27;20154;-71
2023/09/08 02:35:54;;;;;;;3.50;2.40;;;;;;;18.83;75.74;101771.97;2116472;27;20135;-71
2023/09/08 02:36:55;;;;;;;3.95;2.33;;;;;;;18.83;75.80;101771.97;2115866;27;20033;-71
2023/09/08 02:38:00;;;;;;;5.13;2.38;;;;;;;18.82;75.78;101771.16;2116716;27;20154;-71
2023/09/08 02:39:07;;;;;;;6.72;2.60;;;;;;;18.81;75.66;101774.19;2116107;27;20132;-71
2023/09/08 02:40:09;;;;;;;4.63;2.78;;;;;;;18.81;75.58;101766.00;2117232;27;20167;-72
2023/09/08 02:41:12;;;;;;;4.30;2.50;;;;;;;18.81;75.71;101771.47;2116351;27;20097;-71
2023/09/08 02:42:16;;;;;;;3.95;2.53;;;;;;;18.80;75.60;101764.41;2107902;27;20865;-71
2023/09/08 02:43:18;;;;;;;8.88;2.55;;;;;;;18.79;75.66;101762.78;2116467;27;20068;-71
2023/09/08 02:44:22;;;;;;;3.90;2.35;;;;;;;18.75;75.58;101759.84;2124320;27;20023;-72
2023/09/08 02:45:25;;;;;;;4.82;2.50;;;;;;;18.78;75.47;101769.34;2125361;27;20993;-71
2023/09/08 02:46:27;;;;;;;7.63;2.60;;;;;;;18.77;75.58;101762.28;2133129;27;20134;-71
2023/09/08 02:47:32;;;;;;;5.63;2.58;;;;;;;18.77;75.42;101767.75;2124249;27;20974;-72
2023/09/08 02:48:35;;;;;;;4.25;2.28;;;;;;;18.76;75.41;101766.94;2117243;27;20095;-72
2023/09/08 02:49:41;;;;;;;4.55;2.70;;;;;;;18.73;75.55;101760.16;2107984;27;20029;-72
2023/09/08 02:50:44;;;;;;;5.10;2.10;;;;;;;18.72;75.42;101755.81;2116905;27;20109;-72
2023/09/08 02:51:49;;;;;;;4.75;2.40;;;;;;;18.73;75.43;101760.16;2107538;27;20798;-72
2023/09/08 02:52:51;;;;;;;5.95;2.50;;;;;;;18.72;75.40;101758.53;2108360;27;20021;-72
2023/09/08 02:53:55;;;;;;;3.85;2.45;;;;;;;18.70;75.39;101758.03;2116489;27;20254;-71
2023/09/08 02:54:57;;;;;;;5.40;2.55;;;;;;;18.70;75.36;101758.03;2107240;28;20152;-71
2023/09/08 02:56:00;;;;;;;4.35;2.20;;;;;;;18.71;75.46;101753.38;2099598;28;20051;-72
2023/09/08 02:57:02;;;;;;;3.08;2.42;;;;;;;18.69;75.40;101750.94;2098689;28;20025;-71
2023/09/08 02:58:03;;;;;;;4.05;2.28;;;;;;;18.69;75.50;101750.94;2107414;27;20036;-71
2023/09/08 02:59:10;;;;;;;4.25;2.33;;;;;;;18.68;75.47;101753.97;2116269;27;20867;-71
2023/09/08 03:00:15;;;;;;;4.45;2.28;;;;;;;18.67;75.44;101755.09;2108251;28;20033;-71
2023/09/08 03:01:20;;;;;;;4.30;2.58;;;;;;;18.66;75.49;101751.59;2100008;28;20025;-71
2023/09/08 03:02:23;;;;;;;3.92;2.50;;;;;;;18.66;75.40;101746.13;2108714;27;21230;-72
2023/09/08 03:03:24;;;;;;;2.80;2.30;;;;;;;18.67;75.45;101757.81;2099249;28;20037;-72
2023/09/08 03:04:25;;;;;;;4.78;2.42;;;;;;;18.65;75.36;101755.41;2090586;28;20037;-72
2023/09/08 03:05:28;;;;;;;6.53;2.50;;;;;;;18.64;75.38;101740.16;2090672;28;20129;-71
2023/09/08 03:06:29;;;;;;;5.95;2.60;;;;;;;18.64;75.40;101748.34;2090929;28;20048;-72
2023/09/08 03:07:33;;;;;;;4.32;2.30;;;;;;;18.63;75.45;101754.91;2097935;27;20139;-72
2023/09/08 03:08:36;;;;;;;4.35;2.22;;;;;;;18.62;75.33;101747.81;2107945;27;20021;-72
2023/09/08 03:09:41;;;;;;;4.75;2.45;;;;;;;18.63;75.32;101752.19;2116564;27;20866;-72
2023/09/08 03:10:43;;;;;;;3.13;2.42;;;;;;;18.62;75.32;101749.75;2124629;27;20070;-72
2023/09/08 03:11:44;;;;;;;3.67;2.00;;;;;;;18.61;75.43;101740.78;2133166;27;20858;-71
2023/09/08 03:12:48;;;;;;;2.92;2.42;;;;;;;18.61;75.30;101746.22;2133128;27;20858;-71
2023/09/08 03:13:50;;;;;;;5.63;2.60;;;;;;;18.61;75.40;101742.69;2124299;27;20079;-72
2023/09/08 03:14:53;;;;;;;6.28;2.45;;;;;;;18.59;75.41;101739.47;2107415;27;20131;-72
2023/09/08 03:16:10;;;;;;;4.47;2.45;;;;;;;18.59;75.44;101745.72;2125503;27;20128;-72
2023/09/08 03:17:15;;;;;;;4.78;2.40;;;;;;;18.58;75.48;101744.09;2123917;27;20039;-72
2023/09/08 03:18:19;;;;;;;3.88;2.47;;;;;;;18.59;75.32;101744.91;2108304;27;20025;-72
2023/09/08 03:19:20;;;;;;;4.55;2.80;;;;;;;18.57;75.35;101741.66;2107715;27;20432;-72
2023/09/08 03:20:26;;;;;;;3.08;2.47;;;;;;;18.56;75.32;101746.31;2107978;27;20021;-72
2023/09/08 03:21:27;;;;;;;4.53;2.53;;;;;;;18.56;75.36;101743.59;2115987;27;20074;-71
2023/09/08 03:22:29;;;;;;;5.20;2.80;;;;;;;18.57;75.27;101747.13;2107305;27;20040;-72
2023/09/08 03:23:30;;;;;;;3.35;2.28;;;;;;;18.57;75.53;101744.41;2106855;28;20942;-72
2023/09/08 03:24:33;;;;;;;4.68;2.90;;;;;;;18.55;75.50;101744.72;2098761;28;20033;-71
2023/09/08 03:25:38;;;;;;;4.72;2.90;;;;;;;18.56;75.57;101742.78;2117006;27;20020;-71
2023/09/08 03:26:41;;;;;;;3.50;2.83;;;;;;;18.55;75.48;101739.25;2107756;28;20882;-72
2023/09/08 03:27:43;;;;;;;4.35;2.92;;;;;;;18.55;75.47;101744.72;2099286;27;20033;-72
2023/09/08 03:28:48;;;;;;;6.45;3.13;;;;;;;18.55;75.54;101750.16;2107858;27;20790;-72
2023/09/08 03:29:49;;;;;;;5.97;2.85;;;;;;;18.54;75.53;101745.84;2115792;27;20178;-72
2023/09/08 03:30:51;;;;;;;3.83;2.70;;;;;;;18.53;75.46;101746.91;2107329;27;20795;-72
2023/09/08 03:31:53;;;;;;;5.03;2.80;;;;;;;18.53;75.68;101744.19;2115516;27;20036;-72
2023/09/08 03:32:55;;;;;;;5.40;2.83;;;;;;;18.53;75.60;101739.56;2107473;27;20851;-72
2023/09/08 03:34:05;;;;;;;3.65;2.80;;;;;;;18.53;75.67;101753.16;2109041;27;20044;-72
2023/09/08 03:35:09;;;;;;;4.57;2.70;;;;;;;18.52;75.64;101740.66;2101227;28;20159;-72
2023/09/08 03:36:10;;;;;;;4.50;2.58;;;;;;;18.52;75.62;101750.75;2108004;27;20325;-72
2023/09/08 03:37:15;;;;;;;4.47;2.45;;;;;;;18.50;75.58;101742.06;2123921;27;20035;-72
2023/09/08 03:38:17;;;;;;;4.43;2.78;;;;;;;18.51;75.52;101746.44;2124102;27;20747;-72
2023/09/08 03:39:19;;;;;;;7.03;2.70;;;;;;;18.51;75.48;101743.72;2115729;27;20928;-72
2023/09/08 03:40:21;;;;;;;4.82;2.80;;;;;;;18.50;75.54;101742.06;2099002;28;20882;-72
2023/09/08 03:41:23;;;;;;;4.40;2.70;;;;;;;18.49;75.55;101745.94;2107282;27;20103;-72
2023/09/08 03:42:25;;;;;;;3.92;2.63;;;;;;;18.49;75.49;101752.16;2115329;27;20031;-71
2023/09/08 03:43:29;;;;;;;5.28;2.50;;;;;;;18.47;75.48;101748.13;2108102;27;20072;-71
2023/09/08 03:44:31;;;;;;;4.20;2.72;;;;;;;18.48;75.54;101752.50;2115947;27;20020;-72
2023/09/08 03:45:41;;;;;;;3.88;2.40;;;;;;;18.47;75.54;101748.13;2132491;27;20068;-72
2023/09/08 03:46:43;;;;;;;4.00;2.78;;;;;;;18.47;75.45;101737.25;2123715;27;20028;-72
2023/09/08 03:47:47;;;;;;;4.25;2.67;;;;;;;18.46;75.44;101743.81;2107985;27;20119;-72
2023/09/08 03:48:49;;;;;;;8.50;3.42;;;;;;;18.45;75.60;101745.72;2106673;28;20027;-71
2023/09/08 03:49:50;;;;;;;4.47;2.30;;;;;;;18.45;75.61;101744.94;2107618;27;20012;-71
2023/09/08 03:50:52;;;;;;;4.13;2.78;;;;;;;18.42;75.64;101740.09;2115082;28;20639;-72
2023/09/08 03:51:54;;;;;;;6.15;2.80;;;;;;;18.44;75.63;101741.41;2097360;28;20875;-71
2023/09/08 03:53:01;;;;;;;4.07;2.65;;;;;;;18.44;75.55;101751.47;2099781;28;20039;-71
2023/09/08 03:54:05;;;;;;;5.97;2.75;;;;;;;18.43;75.64;101742.50;2108791;27;20025;-71
2023/09/08 03:55:10;;;;;;;4.10;2.38;;;;;;;18.43;75.63;101747.94;2115068;27;20111;-71
2023/09/08 03:56:12;;;;;;;3.83;2.50;;;;;;;18.42;75.77;101743.59;2115289;28;20126;-71
2023/09/08 03:57:15;;;;;;;4.13;2.78;;;;;;;18.42;75.65;101746.34;2098810;28;20033;-71
2023/09/08 03:58:22;;;;;;;5.32;2.70;;;;;;;18.41;75.76;101738.44;2108046;27;20151;-71
2023/09/08 03:59:29;;;;;;;5.32;2.70;;;;;;;18.42;75.71;101745.53;2107273;28;20840;-72
2023/09/08 04:00:30;;;;;;;4.75;2.97;;;;;;;18.40;75.72;101740.38;2108091;28;20033;-71
2023/09/08 04:01:32;;;;;;;4.40;2.63;;;;;;;18.41;75.69;101743.88;2098658;28;20068;-71
2023/09/08 04:02:33;;;;;;;4.25;2.55;;;;;;;18.39;75.89;101740.69;2107155;27;20032;-72
2023/09/08 04:03:39;;;;;;;5.25;2.78;;;;;;;18.40;75.78;101743.09;2098703;28;20158;-72
2023/09/08 04:04:43;;;;;;;4.30;2.63;;;;;;;18.39;75.62;101746.13;2100508;27;20863;-72
2023/09/08 04:05:45;;;;;;;4.53;2.80;;;;;;;18.38;75.65;101745.31;2115277;27;21289;-71
2023/09/08 04:06:46;;;;;;;3.65;2.60;;;;;;;18.39;75.62;101746.13;2106842;28;20029;-71
2023/09/08 04:07:51;;;;;;;4.97;2.88;;;;;;;18.38;75.69;101739.06;2099242;28;20099;-71
2023/09/08 04:08:53;;;;;;;3.35;2.55;;;;;;;18.38;75.63;101749.94;2112982;27;20035;-71
2023/09/08 04:09:56;;;;;;;4.45;2.72;;;;;;;18.38;75.65;101744.50;2114944;27;20024;-72
2023/09/08 04:10:58;;;;;;;3.55;2.70;;;;;;;18.36;75.60;101742.09;2107006;28;20052;-71
2023/09/08 04:12:01;;;;;;;5.50;3.00;;;;;;;18.37;75.63;101751.06;2098352;28;20033;-71
2023/09/08 04:13:05;;;;;;;4.60;2.92;;;;;;;18.36;75.76;101746.72;2098399;28;20076;-72
2023/09/08 04:14:08;;;;;;;4.30;2.72;;;;;;;18.35;75.83;101750.53;2089894;28;20857;-73
2023/09/08 04:15:13;;;;;;;6.97;3.90;;;;;;;18.35;75.93;101745.09;2091702;28;20025;-71
2023/09/08 04:16:15;;;;;;;6.00;2.70;;;;;;;18.34;76.07;101748.94;2098988;28;20045;-71
2023/09/08 04:17:23;;;;;;;6.25;3.13;;;;;;;18.35;76.07;101750.53;2107814;27;20036;-71
2023/09/08 04:18:27;;;;;;;4.95;3.00;;;;;;;18.34;76.14;101743.50;2116190;27;20028;-72
2023/09/08 04:19:29;;;;;;;4.82;3.40;;;;;;;18.34;76.10;101743.50;2106856;28;20097;-71
2023/09/08 04:20:31;;;;;;;5.55;2.83;;;;;;;18.33;76.24;101752.78;2098473;28;20041;-71
2023/09/08 04:21:36;;;;;;;5.53;3.20;;;;;;;18.32;76.43;101734.84;2106687;28;20055;-71
2023/09/08 04:22:37;;;;;;;7.10;3.30;;;;;;;18.32;76.58;101740.28;2099251;28;20882;-72
2023/09/08 04:23:41;;;;;;;6.75;3.72;;;;;;;18.33;76.88;101737.25;2121193;27;20104;-71
2023/09/08 04:24:44;;;;;;;5.63;3.42;;;;;;;18.34;76.68;101743.50;2115768;27;20102;-72
2023/09/08 04:25:46;;;;;;;6.55;3.03;;;;;;;18.34;76.60;101746.22;2112216;27;20874;-73
2023/09/08 04:26:48;;;;;;;8.63;3.10;;;;;;;18.33;76.56;101739.97;2106558;27;20025;-74
2023/09/08 04:27:52;;;;;;;7.80;3.42;;;;;;;18.32;76.70;101735.66;2116862;27;20086;-71
2023/09/08 04:28:55;;;;;;;5.00;3.22;;;;;;;18.30;76.68;101738.66;2132462;27;20052;-72
2023/09/08 04:29:59;;;;;;;5.10;3.20;;;;;;;18.33;76.78;101744.63;2132703;27;20195;-73
2023/09/08 04:31:00;;;;;;;7.82;3.17;;;;;;;18.33;76.54;101736.44;2132168;27;20022;-72
2023/09/08 04:32:08;;;;;;;5.45;3.45;;;;;;;18.33;76.58;101736.44;2123651;27;20038;-71
2023/09/08 04:33:14;;;;;;;4.85;2.95;;;;;;;18.33;76.76;101739.16;2117390;27;20044;-73
2023/09/08 04:34:18;;;;;;;8.35;3.38;;;;;;;18.34;76.84;101738.06;2115577;27;20028;-71
2023/09/08 04:35:20;;;;;;;4.38;2.88;;;;;;;18.33;76.93;101737.25;2107466;27;20169;-74
2023/09/08 04:36:24;;;;;;;5.70;2.92;;;;;;;18.35;76.80;101731.50;2121511;27;20873;-75
2023/09/08 04:37:30;;;;;;;7.07;3.20;;;;;;;18.34;76.89;101733.41;2121313;27;20083;-74
2023/09/08 04:38:32;;;;;;;5.60;3.17;;;;;;;18.34;76.92;101738.84;2126935;27;20019;-73
2023/09/08 04:39:39;;;;;;;5.55;2.97;;;;;;;18.35;76.96;101743.22;2118287;27;20024;-73
2023/09/08 04:40:45;;;;;;;7.78;2.90;;;;;;;18.35;76.99;101743.22;2106171;28;20036;-73
2023/09/08 04:41:50;;;;;;;6.25;2.90;;;;;;;18.35;77.07;101745.94;2105950;28;20134;-73
2023/09/08 04:42:53;;;;;;;4.88;3.10;;;;;;;18.36;77.06;101746.72;2105658;27;21422;-73
2023/09/08 04:43:57;;;;;;;5.00;3.42;;;;;;;18.36;77.04;101738.56;2114018;27;20922;-72
2023/09/08 04:44:59;;;;;;;8.15;3.20;;;;;;;18.37;77.17;101737.44;2122410;27;20019;-73
2023/09/08 04:46:04;;;;;;;8.65;3.47;;;;;;;18.38;77.19;101739.06;2105064;28;20139;-73
2023/09/08 04:47:06;;;;;;;6.25;3.20;;;;;;;18.38;77.28;101744.50;2097371;28;20029;-73
2023/09/08 04:48:09;;;;;;;6.57;3.65;;;;;;;18.38;77.37;101745.31;2113951;27;20181;-73
2023/09/08 04:49:11;;;;;;;8.38;3.63;;;;;;;18.40;77.30;101736.84;2096747;28;20041;-73
2023/09/08 04:50:15;;;;;;;6.18;3.50;;;;;;;18.40;77.42;101742.28;2106306;27;20036;-73
2023/09/08 04:51:18;;;;;;;6.05;3.45;;;;;;;18.39;77.54;101729.78;2113472;28;20070;-74
2023/09/08 04:52:21;;;;;;;6.75;3.70;;;;;;;18.42;77.52;101742.81;2110724;27;20043;-72
2023/09/08 04:53:25;;;;;;;8.13;4.13;;;;;;;18.43;77.54;101745.22;2114056;27;20032;-71
2023/09/08 04:54:27;;;;;;;7.57;3.70;;;;;;;18.45;77.55;101739.47;2097140;28;20048;-72
2023/09/08 04:55:30;;;;;;;6.68;3.67;;;;;;;18.45;77.63;101744.94;2105212;27;20950;-72